Time;durP1;ratioP1;P1;durP2;ratioP2;P2;SDS_P1;SDS_P2;PMS_P1;PMS_P2;Temp;Humidity;BMP_temperature;BMP_pressure;BME280_temperature;BME280_humidity;BME280_pressure;Samples;Min_cycle;Max_cycle;Signal;HPM_P1;HPM_P2
2023/03/02 01:16:08;;;;;;;41.33;14.70;;;;;;;-1.95;100.00;101981.34;6144014;22;20562;-73
2023/03/02 01:18:37;;;;;;;33.80;14.43;;;;;;;-2.05;100.00;101979.91;6210717;23;20020;-72
2023/03/02 01:21:09;;;;;;;29.08;13.07;;;;;;;-2.04;100.00;101984.25;6210793;23;20353;-72
2023/03/02 01:23:36;;;;;;;35.85;14.18;;;;;;;-2.06;100.00;101972.94;6209949;23;20409;-72
2023/03/02 01:26:03;;;;;;;29.25;13.85;;;;;;;-2.03;100.00;101970.19;6209850;23;20324;-71
2023/03/02 01:28:29;;;;;;;35.28;13.93;;;;;;;-2.07;100.00;101976.44;6209357;23;20103;-72
2023/03/02 01:30:56;;;;;;;36.55;14.50;;;;;;;-2.04;100.00;101976.34;6209012;23;20020;-72
2023/03/02 01:33:22;;;;;;;32.72;13.73;;;;;;;-2.01;100.00;101971.00;6203538;23;20329;-72
2023/03/02 01:35:49;;;;;;;32.55;13.32;;;;;;;-2.05;100.00;101974.66;6209104;23;20023;-72
2023/03/02 01:38:15;;;;;;;35.90;15.05;;;;;;;-2.10;100.00;101973.91;6209889;23;20020;-71
2023/03/02 01:40:42;;;;;;;30.83;13.30;;;;;;;-2.16;100.00;101974.13;6182436;23;20020;-72
2023/03/02 01:43:14;;;;;;;32.35;13.27;;;;;;;-2.17;100.00;101973.25;6211054;23;20483;-72
2023/03/02 01:45:53;;;;;;;34.85;13.82;;;;;;;-2.23;100.00;101970.81;6208974;23;20044;-72
2023/03/02 01:48:30;;;;;;;33.03;13.32;;;;;;;-2.25;100.00;101967.38;6209274;23;20025;-73
2023/03/02 01:50:57;;;;;;;25.33;12.27;;;;;;;-2.22;100.00;101967.28;6208946;23;20021;-72
2023/03/02 01:53:28;;;;;;;27.77;12.75;;;;;;;-2.19;100.00;101961.06;6195434;23;20029;-72
2023/03/02 01:55:55;;;;;;;31.48;13.55;;;;;;;-2.24;100.00;101953.31;6207607;23;20039;-72
2023/03/02 01:58:24;;;;;;;27.05;13.27;;;;;;;-2.27;100.00;101947.28;6209583;23;20028;-72
2023/03/02 02:00:51;;;;;;;30.38;13.07;;;;;;;-2.28;100.00;101945.56;6208550;23;20017;-72
2023/03/02 02:03:25;;;;;;;26.45;12.82;;;;;;;-2.27;100.00;101945.53;6198523;23;20036;-73
2023/03/02 02:09:42;;;;;;;25.77;12.23;;;;;;;-2.26;100.00;101939.38;6193165;23;20326;-72
2023/03/02 02:12:15;;;;;;;31.05;13.40;;;;;;;-2.30;100.00;101936.88;6210553;23;20095;-72
2023/03/02 02:14:42;;;;;;;29.52;13.23;;;;;;;-2.31;100.00;101937.78;6183612;23;20346;-73
2023/03/02 02:17:11;;;;;;;33.75;14.25;;;;;;;-2.34;100.00;101931.72;6209612;23;20021;-72
2023/03/02 02:19:37;;;;;;;36.47;14.38;;;;;;;-2.33;100.00;101933.44;6208952;23;20103;-72
2023/03/02 02:22:04;;;;;;;27.75;13.00;;;;;;;-2.29;100.00;101934.22;6209573;23;20024;-72
2023/03/02 02:24:42;;;;;;;30.02;12.98;;;;;;;-2.31;100.00;101927.28;6209703;23;20052;-72
2023/03/02 02:27:11;;;;;;;31.60;13.25;;;;;;;-2.38;100.00;101935.34;6210899;23;20020;-73
2023/03/02 02:29:45;;;;;;;31.45;13.82;;;;;;;-2.38;100.00;101932.72;6210361;23;20027;-72
2023/03/02 02:32:17;;;;;;;29.77;12.45;;;;;;;-2.42;100.00;101928.47;6209858;23;20357;-71
2023/03/02 02:34:50;;;;;;;33.40;13.77;;;;;;;-2.45;100.00;101928.56;6208756;23;20020;-72
2023/03/02 02:37:27;;;;;;;27.45;12.77;;;;;;;-2.43;100.00;101923.28;6209047;23;20031;-71
2023/03/02 02:39:54;;;;;;;28.98;13.57;;;;;;;-2.45;100.00;101939.06;6208477;23;20031;-72
2023/03/02 02:42:31;;;;;;;29.23;13.45;;;;;;;-2.45;100.00;101932.94;6209269;23;20025;-72
2023/03/02 02:45:15;;;;;;;26.77;13.00;;;;;;;-2.47;100.00;101937.41;6209876;23;20099;-72
2023/03/02 02:47:42;;;;;;;33.30;14.38;;;;;;;-2.50;100.00;101935.72;6210117;23;20021;-72
2023/03/02 02:50:18;;;;;;;27.13;12.30;;;;;;;-2.51;100.00;101934.03;6209256;23;20033;-72
2023/03/02 02:52:50;;;;;;;26.45;12.98;;;;;;;-2.52;100.00;101936.69;6209463;23;20096;-72
2023/03/02 04:14:44;;;;;;;31.45;14.80;;;;;;;-2.98;100.00;101912.63;6192125;22;20008;-70
2023/03/02 04:17:10;;;;;;;35.65;15.57;;;;;;;-3.01;100.00;101906.59;6240302;23;20013;-69
2023/03/02 04:19:37;;;;;;;31.02;14.18;;;;;;;-3.03;100.00;101903.16;6240180;23;20001;-69
2023/03/02 04:22:03;;;;;;;30.13;13.95;;;;;;;-3.10;100.00;101902.47;6238699;23;20012;-69
2023/03/02 04:24:30;;;;;;;32.60;13.75;;;;;;;-3.15;100.00;101914.88;6239568;23;20031;-70
2023/03/02 04:26:57;;;;;;;32.40;13.82;;;;;;;-3.15;100.00;101914.88;6239520;23;20004;-71
2023/03/02 04:29:24;;;;;;;34.83;14.13;;;;;;;-3.15;100.00;101912.25;6239474;23;20015;-71
2023/03/02 04:31:50;;;;;;;34.63;14.25;;;;;;;-3.12;100.00;101906.91;6240206;23;20012;-71
2023/03/02 04:34:17;;;;;;;26.08;13.05;;;;;;;-3.17;100.00;101909.66;6239911;23;20016;-70
2023/03/02 04:36:44;;;;;;;28.73;13.75;;;;;;;-3.22;100.00;101913.31;6239590;23;20011;-70
2023/03/02 04:39:13;;;;;;;31.33;13.65;;;;;;;-3.19;100.00;101913.22;6240676;23;20058;-71
2023/03/02 04:41:40;;;;;;;31.00;12.80;;;;;;;-3.22;100.00;101921.19;6240169;23;20035;-70
2023/03/02 04:44:06;;;;;;;30.10;14.50;;;;;;;-3.19;100.00;101918.47;6239594;23;20023;-70
2023/03/02 04:46:33;;;;;;;29.85;14.88;;;;;;;-3.25;100.00;101923.91;6239810;23;20020;-69
2023/03/02 04:49:00;;;;;;;32.25;14.27;;;;;;;-3.19;100.00;101923.72;6239030;23;20001;-68
2023/03/02 04:51:30;;;;;;;31.77;14.48;;;;;;;-3.19;100.00;101926.34;6239517;23;20010;-71
2023/03/02 04:54:00;;;;;;;29.95;14.40;;;;;;;-3.19;100.00;101928.97;6240313;23;20005;-70
2023/03/02 04:56:27;;;;;;;32.40;15.13;;;;;;;-3.19;100.00;101926.34;6239454;23;20004;-70
2023/03/02 04:58:54;;;;;;;34.22;15.02;;;;;;;-3.24;100.00;101926.47;6238936;23;20004;-71
2023/03/02 05:01:20;;;;;;;33.78;15.63;;;;;;;-3.22;100.00;101922.03;6240379;23;20024;-70
2023/03/02 05:03:47;;;;;;;35.83;15.85;;;;;;;-3.21;100.00;101921.13;6238888;23;20000;-71
2023/03/02 05:06:15;;;;;;;32.17;15.55;;;;;;;-3.18;100.00;101917.56;6239467;23;20004;-71
2023/03/02 05:08:42;;;;;;;34.13;16.05;;;;;;;-3.21;100.00;101922.91;6239567;23;20028;-70
2023/03/02 05:11:12;;;;;;;30.95;14.05;;;;;;;-3.27;100.00;101916.06;6239964;23;20027;-70
2023/03/02 05:13:38;;;;;;;33.65;15.63;;;;;;;-3.26;100.00;101911.69;6239676;23;20028;-70
2023/03/02 05:16:05;;;;;;;31.73;15.63;;;;;;;-3.23;100.00;101914.22;6238882;23;20012;-70
2023/03/02 05:18:32;;;;;;;32.55;16.20;;;;;;;-3.21;100.00;101904.53;6239441;23;20004;-69
2023/03/02 05:20:58;;;;;;;32.17;15.75;;;;;;;-3.19;100.00;101905.38;6239265;23;20001;-69
2023/03/02 05:23:27;;;;;;;31.27;17.20;;;;;;;-3.21;100.00;101909.78;6239176;23;20012;-70
2023/03/02 05:25:54;;;;;;;31.90;16.58;;;;;;;-3.20;100.00;101912.38;6239274;23;20032;-71
2023/03/02 05:28:23;;;;;;;38.10;17.52;;;;;;;-3.14;100.00;101916.56;6238936;23;20004;-70
2023/03/02 05:30:51;;;;;;;36.97;17.95;;;;;;;-3.14;100.00;101917.44;6240584;23;20005;-69
2023/03/02 05:33:17;;;;;;;37.20;17.27;;;;;;;-3.19;100.00;101919.34;6241572;23;20000;-71
2023/03/02 05:35:44;;;;;;;37.97;17.65;;;;;;;-3.16;100.00;101918.41;6240291;23;20001;-70
2023/03/02 05:38:11;;;;;;;38.97;18.30;;;;;;;-3.21;100.00;101920.28;6240312;23;20012;-70
2023/03/02 05:40:38;;;;;;;40.80;18.80;;;;;;;-3.21;100.00;101921.13;6239208;23;20012;-70
2023/03/02 05:43:05;;;;;;;38.10;19.38;;;;;;;-3.17;100.00;101921.91;6240459;23;20008;-69
2023/03/02 05:45:35;;;;;;;43.22;19.23;;;;;;;-3.21;100.00;101920.28;6240460;23;20027;-71
2023/03/02 05:48:03;;;;;;;43.38;19.88;;;;;;;-3.19;100.00;101928.97;6240154;23;20012;-69
2023/03/02 05:50:29;;;;;;;42.03;20.73;;;;;;;-3.25;100.00;101930.00;6240134;23;20027;-69
2023/03/02 05:52:58;;;;;;;46.38;21.40;;;;;;;-3.26;100.00;101922.19;6240296;23;20012;-70
2023/03/02 05:55:25;;;;;;;44.33;21.40;;;;;;;-3.24;100.00;101920.34;6240558;23;20011;-70
2023/03/02 05:57:52;;;;;;;54.67;21.98;;;;;;;-3.29;100.00;101918.72;6233054;23;20016;-73
2023/03/02 06:00:19;;;;;;;45.05;21.33;;;;;;;-3.28;100.00;101915.19;6211707;23;20044;-74
2023/03/02 06:02:46;;;;;;;46.85;21.75;;;;;;;-3.29;100.00;101917.88;6210529;23;20345;-74
2023/03/02 06:05:17;;;;;;;56.08;26.63;;;;;;;-3.25;100.00;101921.28;6211591;23;20044;-74
2023/03/02 06:07:44;;;;;;;52.75;25.40;;;;;;;-3.18;100.00;101920.19;6205078;23;20021;-74
2023/03/02 06:10:12;;;;;;;48.42;23.27;;;;;;;-3.25;100.00;101923.91;6211665;23;20035;-75
2023/03/02 06:12:39;;;;;;;48.72;23.88;;;;;;;-3.22;100.00;101929.06;6212186;23;20023;-74
2023/03/02 06:15:07;;;;;;;47.83;24.00;;;;;;;-3.29;100.00;101926.59;6212097;23;20433;-74
2023/03/02 06:49:49;;;;;;;54.05;26.27;;;;;;;-2.98;100.00;101943.28;6182338;22;20087;-75
2023/03/02 06:52:16;;;;;;;61.60;28.08;;;;;;;-3.04;100.00;101944.28;6211014;23;20022;-74
2023/03/02 06:54:42;;;;;;;61.03;27.27;;;;;;;-2.99;100.00;101946.81;6215801;23;20108;-72
2023/03/02 06:57:09;;;;;;;57.55;28.70;;;;;;;-2.97;100.00;101951.09;6211620;23;20569;-72
2023/03/02 06:59:36;;;;;;;65.90;29.60;;;;;;;-2.95;100.00;101948.44;6209896;23;20414;-72
2023/03/02 07:02:03;;;;;;;62.58;27.60;;;;;;;-2.96;100.00;101950.22;6210614;23;20044;-72
2023/03/02 07:04:29;;;;;;;60.45;27.67;;;;;;;-2.92;100.00;101951.84;6204734;23;20020;-72
2023/03/02 07:06:56;;;;;;;64.05;27.05;;;;;;;-2.94;100.00;101951.00;6210779;23;20100;-73
2023/03/02 07:09:23;;;;;;;61.83;27.52;;;;;;;-2.84;100.00;101943.75;6213092;23;20044;-74
2023/03/02 07:11:49;;;;;;;57.97;26.77;;;;;;;-2.88;100.00;101950.84;6210902;23;20016;-74
2023/03/02 07:14:16;;;;;;;63.67;26.77;;;;;;;-2.85;100.00;101944.66;6210093;23;20028;-73
2023/03/02 07:16:42;;;;;;;66.68;28.98;;;;;;;-2.87;100.00;101943.81;6202465;23;20039;-73
2023/03/02 07:19:11;;;;;;;57.03;25.58;;;;;;;-2.84;100.00;101943.75;6212236;23;20035;-74
2023/03/02 07:21:38;;;;;;;55.67;27.45;;;;;;;-2.82;100.00;101944.56;6210274;23;20016;-74
2023/03/02 07:24:05;;;;;;;63.83;28.70;;;;;;;-2.72;100.00;101939.88;6207623;23;20100;-74
2023/03/02 07:26:31;;;;;;;67.78;28.73;;;;;;;-2.71;100.00;101944.25;6209493;23;20366;-74
2023/03/02 07:28:58;;;;;;;69.30;28.42;;;;;;;-2.55;100.00;101947.28;6210968;23;20017;-73
2023/03/02 07:31:26;;;;;;;61.90;27.65;;;;;;;-2.50;100.00;101945.38;6209980;23;20021;-73
2023/03/02 07:33:52;;;;;;;64.55;28.50;;;;;;;-2.47;100.00;101940.91;6210863;23;20021;-74
2023/03/02 07:36:19;;;;;;;63.22;27.48;;;;;;;-2.12;100.00;101944.19;6209667;23;20457;-74
2023/03/02 07:38:45;;;;;;;58.78;26.75;;;;;;;-1.71;100.00;101955.16;6210589;23;20104;-73
2023/03/02 07:41:14;;;;;;;60.25;27.60;;;;;;;-1.40;100.00;101952.34;6212153;23;20453;-74
2023/03/02 07:43:40;;;;;;;53.85;27.33;;;;;;;-1.35;100.00;101949.53;6211487;23;20020;-73
2023/03/02 07:46:07;;;;;;;53.97;25.75;;;;;;;-1.01;100.00;101957.97;6212266;23;20408;-74
2023/03/02 07:48:35;;;;;;;53.42;25.90;;;;;;;-1.06;100.00;101954.63;6211989;23;20047;-73
2023/03/02 07:51:04;;;;;;;58.55;26.10;;;;;;;-1.23;100.00;101952.63;6212339;23;20044;-74
2023/03/02 07:53:30;;;;;;;60.25;29.65;;;;;;;-1.30;100.00;101952.88;6211539;23;20103;-74
2023/03/02 07:55:57;;;;;;;56.90;26.20;;;;;;;-1.01;100.00;101954.47;6212081;23;20020;-73
2023/03/02 07:58:24;;;;;;;50.50;25.15;;;;;;;-0.87;100.00;101956.63;6212801;23;20035;-74
2023/03/02 08:00:50;;;;;;;52.85;24.33;;;;;;;-0.51;100.00;101952.59;6212096;23;20027;-74
2023/03/02 08:03:16;;;;;;;59.60;26.70;;;;;;;-0.21;100.00;101953.19;6212022;23;20350;-74
2023/03/02 08:05:43;;;;;;;47.28;23.73;;;;;;;0.16;100.00;101948.22;6210169;23;20021;-74
2023/03/02 08:08:09;;;;;;;50.88;24.42;;;;;;;0.52;100.00;101943.19;6211964;23;20365;-74
2023/03/02 08:10:36;;;;;;;53.50;24.58;;;;;;;0.35;100.00;101951.81;6211839;23;20024;-74
2023/03/02 08:13:03;;;;;;;48.70;24.25;;;;;;;0.48;100.00;101944.22;6201718;23;20492;-74
2023/03/02 08:15:30;;;;;;;47.97;24.90;;;;;;;0.72;100.00;101940.53;6212152;23;20024;-74
2023/03/02 08:17:56;;;;;;;46.13;24.23;;;;;;;0.76;100.00;101947.41;6212101;23;20413;-74
2023/03/02 08:20:23;;;;;;;48.60;25.10;;;;;;;1.05;100.00;101941.75;6212636;23;20017;-75
2023/03/02 08:22:50;;;;;;;49.35;24.35;;;;;;;0.98;100.00;101936.72;6211769;23;20020;-75
2023/03/02 08:25:17;;;;;;;51.65;25.38;;;;;;;1.09;100.00;101933.63;6204298;23;20044;-75
2023/03/02 08:27:44;;;;;;;47.08;25.23;;;;;;;1.22;100.00;101929.47;6211572;23;20023;-75
2023/03/02 08:30:12;;;;;;;43.05;24.50;;;;;;;1.33;100.00;101941.34;6211348;23;20047;-75
2023/03/02 08:32:39;;;;;;;49.78;26.38;;;;;;;1.82;100.00;101939.03;6211603;23;20025;-75
2023/03/02 08:35:06;;;;;;;46.53;26.17;;;;;;;1.89;100.00;101941.34;6211458;23;20031;-74
2023/03/02 08:37:33;;;;;;;47.58;25.15;;;;;;;1.42;100.00;101941.78;6211198;23;20458;-74
2023/03/02 08:40:00;;;;;;;54.60;28.10;;;;;;;1.40;100.00;101934.84;6211536;23;20095;-75
2023/03/02 08:42:26;;;;;;;55.40;28.42;;;;;;;1.84;100.00;101939.84;6197058;23;20468;-74
2023/03/02 08:44:52;;;;;;;53.17;26.42;;;;;;;1.87;100.00;101937.06;6212876;23;20040;-74
2023/03/02 08:47:19;;;;;;;57.33;26.65;;;;;;;1.82;100.00;101925.81;6211339;23;20349;-74
2023/03/02 08:49:45;;;;;;;44.70;25.40;;;;;;;2.39;100.00;101930.06;6211714;23;20024;-75
2023/03/02 08:52:14;;;;;;;46.85;25.38;;;;;;;2.25;100.00;101921.09;6197458;23;20512;-75
2023/03/02 08:54:40;;;;;;;53.47;26.15;;;;;;;2.29;100.00;101926.16;6209770;23;20013;-75
2023/03/02 08:57:10;;;;;;;49.00;26.65;;;;;;;1.85;100.00;101923.03;6211366;23;20104;-75
2023/03/02 08:59:37;;;;;;;51.47;27.75;;;;;;;2.08;100.00;101921.94;6212743;23;20095;-75
2023/03/02 09:02:03;;;;;;;55.20;27.27;;;;;;;2.17;100.00;101925.00;6211535;23;20079;-75
2023/03/02 09:04:30;;;;;;;51.30;26.70;;;;;;;2.42;100.00;101915.81;6211369;23;20013;-74
2023/03/02 09:06:57;;;;;;;53.08;28.23;;;;;;;2.40;99.80;101910.56;6210727;23;20086;-74
2023/03/02 09:09:23;;;;;;;48.42;26.77;;;;;;;2.71;99.38;101909.00;6212217;23;20479;-75
2023/03/02 09:11:50;;;;;;;52.03;27.02;;;;;;;2.96;95.35;101910.34;6211599;23;20044;-74
2023/03/02 09:14:16;;;;;;;50.95;27.65;;;;;;;2.75;93.51;101913.19;6210446;23;20039;-75
2023/03/02 09:16:44;;;;;;;55.15;28.42;;;;;;;3.34;90.90;101910.94;6212142;23;20020;-75
2023/03/02 09:19:12;;;;;;;56.42;30.20;;;;;;;3.18;90.78;101916.22;6212205;23;20365;-75
2023/03/02 09:21:39;;;;;;;51.28;27.95;;;;;;;3.53;86.95;101905.47;6211304;23;20036;-75
2023/03/02 09:24:05;;;;;;;53.03;28.42;;;;;;;3.59;85.88;101902.50;6211351;23;20104;-75
2023/03/02 09:26:32;;;;;;;56.28;27.98;;;;;;;3.96;83.99;101903.88;6212412;23;20028;-74
2023/03/02 09:28:59;;;;;;;52.60;28.80;;;;;;;4.20;81.23;101895.44;6211994;23;20024;-75
2023/03/02 09:31:26;;;;;;;51.92;27.60;;;;;;;4.45;78.63;101900.19;6212916;23;20021;-75
2023/03/02 09:33:55;;;;;;;51.30;28.73;;;;;;;4.60;75.33;101899.28;6213168;23;20092;-75
2023/03/02 09:36:24;;;;;;;56.47;29.10;;;;;;;4.68;74.96;101902.31;6189258;23;20017;-75
2023/03/02 09:38:52;;;;;;;52.50;29.35;;;;;;;4.69;76.29;101900.50;6201617;23;20095;-75
2023/03/02 09:41:18;;;;;;;52.08;29.35;;;;;;;4.97;72.57;101897.00;6210891;23;20020;-75
2023/03/02 09:44:32;;;;;;;56.63;29.77;;;;;;;4.93;71.71;101892.84;6210939;23;20027;-76
2023/03/02 09:47:06;;;;;;;54.55;29.85;;;;;;;5.52;69.31;101897.06;6196396;23;20024;-74
2023/03/02 09:49:52;;;;;;;49.63;30.65;;;;;;;5.55;67.08;101900.47;6210046;23;20534;-75
2023/03/02 09:52:32;;;;;;;48.15;30.02;;;;;;;5.49;67.51;101888.41;6210725;23;20048;-75
2023/03/02 09:55:20;;;;;;;50.35;30.95;;;;;;;5.47;66.12;101899.16;6210319;23;20016;-75
2023/03/02 09:57:47;;;;;;;57.97;32.20;;;;;;;5.49;65.94;101896.38;6210827;23;20092;-75
2023/03/02 10:00:35;;;;;;;55.60;31.13;;;;;;;5.46;67.72;101899.28;6210004;23;20024;-75
2023/03/02 10:03:06;;;;;;;58.67;31.02;;;;;;;5.53;67.42;101893.44;6211061;23;20024;-75
2023/03/02 10:05:52;;;;;;;49.33;31.63;;;;;;;5.57;65.44;101904.75;6209966;23;20113;-75
2023/03/02 10:08:33;;;;;;;59.03;32.05;;;;;;;5.54;66.36;101907.63;6210052;23;20099;-75
2023/03/02 10:11:36;;;;;;;53.25;30.90;;;;;;;5.13;66.86;101900.44;6210527;23;20031;-74
2023/03/02 10:14:19;;;;;;;47.83;30.23;;;;;;;5.36;67.97;101896.34;6211207;23;20103;-75
2023/03/02 10:17:03;;;;;;;51.25;31.33;;;;;;;5.53;64.72;101903.25;6210674;23;20047;-75
2023/03/02 10:19:46;;;;;;;51.50;31.02;;;;;;;5.41;65.72;101898.69;6210433;23;20027;-75
2023/03/02 10:22:12;;;;;;;51.35;31.70;;;;;;;5.21;66.08;101905.28;6210445;23;20031;-74
2023/03/02 10:25:21;;;;;;;45.10;30.02;;;;;;;5.28;66.00;101904.81;6209757;23;20038;-75
2023/03/02 10:27:54;;;;;;;45.10;29.90;;;;;;;5.45;66.35;101898.41;6210353;23;20445;-75
2023/03/02 10:30:29;;;;;;;46.80;29.95;;;;;;;5.56;64.95;101899.50;6209927;23;20024;-75
2023/03/02 10:33:01;;;;;;;43.95;29.17;;;;;;;5.66;63.77;101893.50;6212104;23;20095;-75
2023/03/02 10:35:30;;;;;;;55.75;29.52;;;;;;;5.42;64.96;101889.75;6208424;23;20100;-75
2023/03/02 10:38:03;;;;;;;54.88;29.40;;;;;;;5.67;63.96;101894.38;6211526;23;20083;-75
2023/03/02 10:40:41;;;;;;;42.58;26.98;;;;;;;6.10;61.49;101881.72;6210588;23;20016;-75
2023/03/02 10:43:33;;;;;;;39.03;25.42;;;;;;;5.40;63.73;101887.19;6209470;23;20021;-75
2023/03/02 10:46:00;;;;;;;;;;;;;;;5.35;64.11;101891.09;6210840;23;20016;-75
2023/03/02 10:48:27;;;;;;;38.78;26.13;;;;;;;4.99;65.14;101885.34;6210384;23;19916;-75
2023/03/02 10:50:57;;;;;;;41.53;24.08;;;;;;;5.12;67.09;101882.78;6211424;23;20023;-75
2023/03/02 10:53:23;;;;;;;37.58;24.63;;;;;;;4.94;66.34;101875.97;6210975;23;20026;-75
2023/03/02 10:55:52;;;;;;;42.78;24.35;;;;;;;4.80;67.45;101879.47;6210172;23;22435;-75
2023/03/02 10:58:24;;;;;;;36.17;23.65;;;;;;;4.64;68.40;101871.56;6208718;23;20036;-75
2023/03/02 11:00:59;;;;;;;39.15;24.20;;;;;;;4.21;70.30;101879.44;6207550;23;20045;-76
2023/03/02 11:03:26;;;;;;;35.95;24.15;;;;;;;4.33;71.86;101880.50;6209909;23;20052;-76
2023/03/02 11:05:54;;;;;;;41.38;23.23;;;;;;;4.10;72.64;101866.78;6210303;23;20104;-75
2023/03/02 11:08:23;;;;;;;40.50;22.73;;;;;;;4.42;71.90;101871.16;6210904;23;20461;-75
2023/03/02 11:10:51;;;;;;;35.95;21.50;;;;;;;4.50;71.28;101877.72;6210206;23;20016;-75
2023/03/02 11:13:34;;;;;;;44.90;22.23;;;;;;;3.99;73.59;101878.97;6210046;23;20476;-75
2023/03/02 11:16:20;;;;;;;38.38;20.92;;;;;;;4.40;73.05;101876.56;6209159;23;20401;-75
2023/03/02 11:19:25;;;;;;;32.65;20.85;;;;;;;4.87;70.91;101869.28;6209739;23;20099;-75
2023/03/02 11:22:21;;;;;;;37.50;20.83;;;;;;;4.94;69.62;101875.97;6184765;23;20468;-75
2023/03/02 11:24:52;;;;;;;32.13;20.40;;;;;;;4.80;69.46;101869.69;6185738;23;20420;-75
2023/03/02 11:27:28;;;;;;;33.67;21.00;;;;;;;4.97;69.13;101873.97;6209806;23;20341;-75
2023/03/02 11:30:03;;;;;;;33.63;20.58;;;;;;;5.04;69.07;101871.78;6209340;23;20404;-75
2023/03/02 11:32:41;;;;;;;39.42;21.48;;;;;;;5.16;68.48;101868.31;6210727;23;20345;-75
2023/03/02 11:35:13;;;;;;;31.15;18.70;;;;;;;5.34;67.14;101862.78;6195510;23;20044;-75
2023/03/02 11:37:51;;;;;;;33.03;20.10;;;;;;;5.28;66.59;101856.91;6211706;23;20045;-74
2023/03/02 11:40:42;;;;;;;34.83;20.75;;;;;;;5.32;66.88;101854.91;6212384;23;20096;-75
2023/03/02 11:43:12;;;;;;;33.95;20.50;;;;;;;5.22;65.22;101854.66;6211888;23;20358;-75
2023/03/02 11:45:50;;;;;;;38.05;20.48;;;;;;;5.27;65.73;101849.03;6211392;23;20012;-75
2023/03/02 11:48:23;;;;;;;33.47;20.63;;;;;;;5.55;64.16;101850.75;6212805;23;20028;-76
2023/03/02 11:51:04;;;;;;;33.33;19.75;;;;;;;5.76;63.30;101845.81;6211882;23;20043;-75
2023/03/02 11:54:28;;;;;;;36.13;19.38;;;;;;;6.22;62.10;101851.59;6212271;23;20100;-76
2023/03/02 11:56:55;;;;;;;33.65;19.45;;;;;;;6.36;60.55;101860.50;6055081;23;20351;-76
2023/03/02 11:59:22;;;;;;;29.15;18.88;;;;;;;6.93;58.67;101854.72;6061507;23;20033;-76
2023/03/02 12:01:55;;;;;;;32.20;19.05;;;;;;;7.60;55.95;101844.53;6061954;23;20329;-74
2023/03/02 12:04:48;;;;;;;36.97;21.17;;;;;;;7.62;55.04;101847.06;6061705;23;20039;-76
2023/03/02 12:07:26;;;;;;;40.88;20.67;;;;;;;8.11;53.17;101843.41;6058690;23;20106;-75
2023/03/02 12:10:21;;;;;;;32.65;20.17;;;;;;;8.45;51.98;101841.69;6061549;23;20026;-76
2023/03/02 12:13:01;;;;;;;34.38;20.13;;;;;;;8.65;51.31;101833.94;6061689;23;20097;-75
2023/03/02 12:15:37;;;;;;;34.63;19.63;;;;;;;8.34;51.55;101837.16;6060947;23;20039;-75
2023/03/02 12:18:19;;;;;;;31.50;19.33;;;;;;;9.04;49.50;101827.22;6056941;23;20027;-75
2023/03/02 12:21:09;;;;;;;46.38;19.08;;;;;;;9.51;48.94;101817.19;6060754;23;20098;-75
2023/03/02 12:23:52;;;;;;;26.85;18.67;;;;;;;10.30;46.76;101814.13;6060237;23;20105;-75
2023/03/02 12:26:18;;;;;;;30.27;17.48;;;;;;;10.39;45.58;101816.88;6060393;23;20061;-75
2023/03/02 12:29:02;;;;;;;30.75;18.73;;;;;;;10.26;45.42;101810.88;6060617;23;20023;-74
2023/03/02 12:31:45;;;;;;;26.33;17.52;;;;;;;10.19;45.72;101813.22;6191554;23;20024;-75
2023/03/02 12:34:36;;;;;;;25.73;18.27;;;;;;;9.99;45.47;101798.84;6210546;23;20087;-75
2023/03/02 12:37:12;;;;;;;26.55;17.20;;;;;;;9.43;46.64;101800.91;6195119;23;20032;-75
2023/03/02 12:39:49;;;;;;;29.13;16.77;;;;;;;7.84;49.80;101784.91;6210280;23;20095;-76
2023/03/02 12:42:51;;;;;;;26.58;17.67;;;;;;;7.23;52.21;101784.13;6210720;23;20083;-75
2023/03/02 12:45:28;;;;;;;25.55;17.63;;;;;;;6.67;54.64;101781.91;6189902;23;20025;-76
2023/03/02 12:48:03;;;;;;;29.08;18.60;;;;;;;6.53;55.70;101788.22;6194042;23;20499;-74
2023/03/02 12:50:36;;;;;;;35.13;17.67;;;;;;;6.41;56.68;101789.06;6211400;23;20020;-74
2023/03/02 12:53:12;;;;;;;26.63;17.05;;;;;;;6.65;56.52;101782.00;6211360;23;20223;-74
2023/03/02 12:55:39;;;;;;;29.70;18.38;;;;;;;6.73;55.43;101789.44;6210240;23;20047;-76
2023/03/02 12:58:20;;;;;;;28.42;17.77;;;;;;;7.69;53.17;101781.53;6211648;23;20029;-75
2023/03/02 13:01:01;;;;;;;32.33;18.52;;;;;;;8.81;50.17;101783.56;6209280;23;20356;-76
2023/03/02 13:03:30;;;;;;;26.42;17.75;;;;;;;9.08;48.60;101772.47;6210997;23;20024;-76
2023/03/02 13:06:12;;;;;;;24.73;17.42;;;;;;;9.51;47.69;101771.66;6211066;23;20363;-76
2023/03/02 13:08:41;;;;;;;;;;;;;;;10.76;45.37;101765.41;6210633;23;20024;-75
2023/03/02 13:11:08;;;;;;;27.85;16.45;;;;;;;11.14;44.10;101753.91;6211995;23;19922;-74
2023/03/02 13:13:38;;;;;;;27.45;17.42;;;;;;;10.88;43.19;101764.28;6211042;23;20031;-75
2023/03/02 13:16:18;;;;;;;26.23;16.58;;;;;;;8.11;48.11;101760.56;6210947;23;20389;-75
2023/03/02 13:18:45;;;;;;;25.13;16.75;;;;;;;5.64;55.55;101764.13;6210090;23;20036;-75
2023/03/02 13:21:13;;;;;;;29.92;17.60;;;;;;;5.20;59.40;101762.56;6209938;23;20099;-75
2023/03/02 13:23:50;;;;;;;26.92;17.98;;;;;;;3.69;71.08;101764.81;6211687;23;20323;-75
2023/03/02 13:26:38;;;;;;;31.25;19.52;;;;;;;2.89;84.28;101767.56;6210038;23;20035;-74
2023/03/02 13:29:18;;;;;;;35.95;18.60;;;;;;;2.28;97.85;101762.94;6209838;23;20028;-75
2023/03/02 13:31:44;;;;;;;29.30;18.70;;;;;;;1.81;100.00;101765.34;6210507;23;20056;-75
2023/03/02 13:34:44;;;;;;;30.23;18.23;;;;;;;1.45;100.00;101753.91;6211944;23;20327;-75
2023/03/02 13:37:25;;;;;;;43.72;19.42;;;;;;;1.39;100.00;101751.56;6209005;23;20031;-75
2023/03/02 13:40:00;;;;;;;37.47;19.25;;;;;;;1.54;100.00;101754.38;6210133;23;20022;-75
2023/03/02 13:42:39;;;;;;;33.50;20.40;;;;;;;1.62;100.00;101746.94;6210149;23;20021;-75
2023/03/02 13:45:29;;;;;;;40.75;20.23;;;;;;;1.53;100.00;101747.38;6211050;23;20051;-74
2023/03/02 13:47:58;;;;;;;33.30;20.05;;;;;;;1.62;100.00;101745.13;6209913;23;20040;-75
2023/03/02 13:50:31;;;;;;;43.65;20.90;;;;;;;1.64;100.00;101745.03;6210565;23;20028;-75
2023/03/02 13:53:01;;;;;;;38.90;20.75;;;;;;;1.71;100.00;101741.16;6209522;23;20028;-75
2023/03/02 13:55:28;;;;;;;43.22;20.70;;;;;;;1.89;100.00;101720.84;6210179;23;20079;-75
2023/03/02 13:57:55;;;;;;;38.30;20.00;;;;;;;1.86;100.00;101723.66;6209129;23;20035;-75
2023/03/02 14:00:24;;;;;;;41.35;19.08;;;;;;;1.87;100.00;101728.84;6209914;23;20023;-74
2023/03/02 14:02:51;;;;;;;31.15;19.00;;;;;;;1.95;100.00;101726.69;6208942;23;20360;-75
2023/03/02 14:05:24;;;;;;;34.00;19.73;;;;;;;1.87;100.00;101720.91;6209682;23;20024;-75
2023/03/02 14:07:51;;;;;;;35.05;18.92;;;;;;;1.86;100.00;101721.00;6210965;23;20484;-75
2023/03/02 14:10:19;;;;;;;43.38;18.88;;;;;;;1.83;100.00;101713.22;6210411;23;20116;-74
2023/03/02 14:12:54;;;;;;;31.38;18.38;;;;;;;1.71;100.00;101715.56;6210388;23;20143;-75
2023/03/02 14:15:21;;;;;;;27.40;17.40;;;;;;;1.66;100.00;101716.72;6211318;23;20078;-75
2023/03/02 14:17:48;;;;;;;31.67;17.27;;;;;;;1.77;100.00;101709.09;6211437;23;20095;-75
2023/03/02 14:20:18;;;;;;;38.42;17.30;;;;;;;1.78;100.00;101710.78;6210265;23;20032;-74
2023/03/02 14:22:49;;;;;;;33.30;17.70;;;;;;;1.72;100.00;101703.19;6211614;23;20023;-75
2023/03/02 14:25:16;;;;;;;33.90;17.45;;;;;;;1.69;100.00;101708.66;6210401;23;20055;-75
2023/03/02 14:27:42;;;;;;;31.35;18.60;;;;;;;1.73;100.00;101697.81;6210893;23;20028;-74
2023/03/02 14:30:18;;;;;;;29.65;16.75;;;;;;;1.60;100.00;101695.88;6212190;23;20027;-75
2023/03/02 14:32:45;;;;;;;30.48;18.02;;;;;;;1.64;100.00;101703.56;6210609;23;20027;-74
2023/03/02 14:35:14;;;;;;;32.75;19.63;;;;;;;1.61;100.00;101689.66;6211496;23;20357;-73
2023/03/02 14:37:48;;;;;;;34.70;19.75;;;;;;;1.38;100.00;101683.75;6211460;23;20024;-74
2023/03/02 14:40:26;;;;;;;31.05;17.63;;;;;;;1.07;100.00;101680.94;6209856;23;20035;-74